Time;durP1;ratioP1;P1;durP2;ratioP2;P2;SDS_P1;SDS_P2;PMS_P1;PMS_P2;Temp;Humidity;BMP_temperature;BMP_pressure;BME280_temperature;BME280_humidity;BME280_pressure;Samples;Min_cycle;Max_cycle;Signal;HPM_P1;HPM_P2
2022/07/05 00:00:15;;;;;;;;;;;;;;;24.66;58.58;100100.56;2059661;28;20045;-57
2022/07/05 00:01:15;;;;;;;;;;;;;;;24.65;58.45;100098.88;2054625;28;20543;-57
2022/07/05 00:02:16;;;;;;;;;;;;;;;24.65;58.48;100096.13;2060414;28;19921;-58
2022/07/05 00:03:16;;;;;;;;;;;;;;;24.65;58.44;100103.53;2061907;28;20003;-58
2022/07/05 00:04:17;;;;;;;;;;;;;;;24.64;58.46;100099.91;2059224;28;19917;-57
2022/07/05 00:05:17;;;;;;;;;;;;;;;24.65;58.48;100104.38;2059377;28;20490;-58
2022/07/05 00:06:17;;;;;;;;;;;;;;;24.64;58.50;100102.66;2061701;28;19924;-58
2022/07/05 00:07:18;;;;;;;;;;;;;;;24.66;58.48;100099.72;2057612;28;19950;-58
2022/07/05 00:08:18;;;;;;;;;;;;;;;24.64;58.57;100105.41;2056504;28;20008;-58
2022/07/05 00:09:18;;;;;;;;;;;;;;;24.64;58.56;100105.41;2055316;28;20520;-58
2022/07/05 00:10:19;;;;;;;;;;;;;;;24.65;58.61;100111.81;2059656;28;19917;-57
2022/07/05 00:11:19;;;;;;;;;;;;;;;24.64;58.56;100108.16;2058189;28;20206;-58
2022/07/05 00:12:21;;;;;;;;;;;;;;;24.64;58.64;100105.41;2058730;28;20363;-57
2022/07/05 00:13:21;;;;;;;;;;;;;;;24.65;58.36;100109.91;2059190;28;20717;-58
2022/07/05 00:14:22;;;;;;;;;;;;;;;24.65;58.49;100109.91;2060282;28;19921;-58
2022/07/05 00:15:22;;;;;;;;;;;;;;;24.64;58.37;100099.91;2054149;28;19969;-58
2022/07/05 00:16:23;;;;;;;;;;;;;;;24.64;58.38;100110.91;2055927;28;20334;-58
2022/07/05 00:17:23;;;;;;;;;;;;;;;24.65;58.45;100109.91;2051495;28;20312;-57
2022/07/05 00:18:24;;;;;;;;;;;;;;;24.65;58.44;100106.28;2056679;28;19933;-58
2022/07/05 00:19:24;;;;;;;;;;;;;;;24.65;58.28;100109.03;2056733;28;19957;-57
2022/07/05 00:20:24;;;;;;;;;;;;;;;24.65;58.38;100117.31;2050246;28;19981;-57
2022/07/05 00:21:25;;;;;;;;;;;;;;;24.65;58.58;100115.41;2054476;28;19910;-58
2022/07/05 00:22:25;;;;;;;;;;;;;;;24.64;58.40;100110.91;2060364;28;19964;-58
2022/07/05 00:23:25;;;;;;;;;;;;;;;24.65;58.21;100112.66;2057897;28;20399;-57
2022/07/05 00:24:26;;;;;;;;;;;;;;;24.65;58.44;100115.41;2059103;28;19921;-58
2022/07/05 00:25:26;;;;;;;;;;;;;;;24.65;58.43;100118.16;2060347;28;19917;-58
2022/07/05 00:26:27;;;;;;;;;;;;;;;24.64;58.51;100116.44;2050869;28;19980;-58
2022/07/05 00:27:28;;;;;;;;;;;;;;;24.64;58.20;100113.69;2051671;28;19968;-57
2022/07/05 00:28:28;;;;;;;;;;;;;;;24.65;58.35;100111.81;2060407;28;19932;-58
2022/07/05 00:29:29;;;;;;;;;;;;;;;24.65;58.21;100114.56;2056141;28;19924;-58
2022/07/05 00:30:29;;;;;;;;;;;;;;;24.64;58.35;100116.44;2060768;28;19913;-58
2022/07/05 00:31:29;;;;;;;;;;;;;;;24.64;58.23;100110.91;2055123;28;19914;-58
2022/07/05 00:32:30;;;;;;;;;;;;;;;24.64;58.19;100105.41;2059506;28;19922;-58
2022/07/05 00:33:30;;;;;;;;;;;;;;;24.64;58.36;100112.81;2060911;28;19972;-58
2022/07/05 00:34:30;;;;;;;;;;;;;;;24.65;58.36;100111.81;2058233;28;20244;-57
2022/07/05 00:35:31;;;;;;;;;;;;;;;24.65;58.44;100112.66;2056055;28;20212;-57
2022/07/05 00:36:31;;;;;;;;;;;;;;;24.63;58.25;100120.25;2056100;28;19914;-58
2022/07/05 00:37:31;;;;;;;;;;;;;;;24.63;58.36;100109.22;2058990;28;20005;-58
2022/07/05 00:38:32;;;;;;;;;;;;;;;24.64;58.41;100110.91;2059231;28;19922;-57
2022/07/05 00:39:32;;;;;;;;;;;;;;;24.63;58.39;100103.72;2051658;28;19924;-58
2022/07/05 00:40:32;;;;;;;;;;;;;;;24.63;58.37;100111.97;2053832;28;19925;-57
2022/07/05 00:41:32;;;;;;;;;;;;;;;24.63;58.15;100109.22;2057224;28;19991;-58
2022/07/05 00:42:33;;;;;;;;;;;;;;;24.63;58.19;100109.22;2053666;28;19918;-58
2022/07/05 00:43:33;;;;;;;;;;;;;;;24.64;58.20;100110.91;2059812;28;19918;-58
2022/07/05 00:44:35;;;;;;;;;;;;;;;24.64;58.19;100104.56;2062052;28;19968;-58
2022/07/05 00:45:35;;;;;;;;;;;;;;;24.63;58.13;100102.84;2056318;28;20012;-57
2022/07/05 00:46:36;;;;;;;;;;;;;;;24.63;58.42;100100.94;2055842;28;19917;-58
2022/07/05 00:47:37;;;;;;;;;;;;;;;24.62;58.31;100107.53;2059172;28;20289;-58
2022/07/05 00:48:37;;;;;;;;;;;;;;;24.62;58.23;100099.25;2058941;28;20007;-57
2022/07/05 00:49:38;;;;;;;;;;;;;;;24.63;58.20;100103.72;2060031;28;19917;-58
2022/07/05 00:50:38;;;;;;;;;;;;;;;24.62;58.34;100090.97;2059246;28;20011;-57
2022/07/05 00:51:39;;;;;;;;;;;;;;;24.61;58.21;100094.75;2059585;28;20733;-58
2022/07/05 00:52:39;;;;;;;;;;;;;;;24.62;58.36;100090.97;2059203;28;19923;-57
2022/07/05 00:53:40;;;;;;;;;;;;;;;24.62;58.16;100093.75;2057094;28;19925;-58
2022/07/05 00:54:41;;;;;;;;;;;;;;;24.60;58.20;100088.41;2062023;28;19929;-58
2022/07/05 00:55:42;;;;;;;;;;;;;;;24.62;58.31;100090.97;2057709;28;19924;-57
2022/07/05 00:56:43;;;;;;;;;;;;;;;24.62;58.30;100090.09;2059572;28;19925;-57
2022/07/05 00:57:43;;;;;;;;;;;;;;;24.60;58.32;100093.91;2049969;28;19953;-58
2022/07/05 00:58:44;;;;;;;;;;;;;;;24.62;58.28;100090.09;2038630;28;19923;-58
2022/07/05 00:59:44;;;;;;;;;;;;;;;24.61;58.16;100105.78;2051864;28;19918;-58
2022/07/05 01:00:45;;;;;;;;;;;;;;;24.62;58.37;100101.13;2059195;28;19924;-57
2022/07/05 01:01:45;;;;;;;;;;;;;;;24.62;58.31;100096.50;2065708;28;19923;-58
2022/07/05 01:02:45;;;;;;;;;;;;;;;24.61;58.26;100111.31;2051059;28;19978;-58
2022/07/05 01:03:46;;;;;;;;;;;;;;;24.62;58.22;100099.25;2059702;28;20423;-58
2022/07/05 01:04:48;;;;;;;;;;;;;;;24.62;58.13;100093.75;2061162;28;19945;-58
2022/07/05 01:05:49;;;;;;;;;;;;;;;24.61;58.28;100097.53;2069205;28;19909;-58
2022/07/05 01:06:50;;;;;;;;;;;;;;;24.61;58.30;100105.78;2061634;28;19917;-57
2022/07/05 01:07:50;;;;;;;;;;;;;;;24.62;58.27;100098.38;2054196;28;19954;-57
2022/07/05 01:08:52;;;;;;;;;;;;;;;24.61;58.29;100097.53;2060331;28;19987;-57
2022/07/05 01:09:52;;;;;;;;;;;;;;;24.61;58.22;100100.28;2060657;28;19917;-58
2022/07/05 01:10:54;;;;;;;;;;;;;;;24.62;58.23;100101.13;2061713;28;19917;-58
2022/07/05 01:11:55;;;;;;;;;;;;;;;24.61;58.24;100100.28;2054299;28;19922;-58
2022/07/05 01:12:55;;;;;;;;;;;;;;;24.62;58.28;100102.00;2052197;28;19917;-57
2022/07/05 01:13:55;;;;;;;;;;;;;;;24.61;58.25;100105.78;2059506;28;20151;-58
2022/07/05 01:14:56;;;;;;;;;;;;;;;24.62;58.09;100107.53;2059770;28;19917;-57
2022/07/05 01:15:56;;;;;;;;;;;;;;;24.62;58.16;100103.88;2070580;28;19917;-58
2022/07/05 01:16:56;;;;;;;;;;;;;;;24.62;58.23;100103.88;2059935;28;19944;-57
2022/07/05 01:17:57;;;;;;;;;;;;;;;24.62;58.33;100101.13;2059807;28;20090;-58
2022/07/05 01:18:57;;;;;;;;;;;;;;;24.60;58.31;100104.94;2060993;28;20083;-57
2022/07/05 01:19:57;;;;;;;;;;;;;;;24.61;58.17;100105.78;2059776;28;19918;-58
2022/07/05 01:21:01;;;;;;;;;;;;;;;24.60;58.10;100104.94;2061472;28;20191;-58
2022/07/05 01:22:07;;;;;;;;;;;;;;;24.60;58.04;100104.09;2058996;28;19961;-58
2022/07/05 01:23:07;;;;;;;;;;;;;;;24.60;58.10;100104.09;2060497;28;19918;-57
2022/07/05 01:24:08;;;;;;;;;;;;;;;24.60;58.25;100104.94;2061469;28;20358;-57
2022/07/05 01:25:09;;;;;;;;;;;;;;;24.60;58.13;100104.09;2060124;28;19917;-57
2022/07/05 01:26:10;;;;;;;;;;;;;;;24.61;58.37;100103.03;2065874;28;19913;-58
2022/07/05 01:27:11;;;;;;;;;;;;;;;24.60;57.91;100106.84;2053643;28;19918;-58
2022/07/05 01:28:11;;;;;;;;;;;;;;;24.60;58.13;100107.69;2056650;28;20147;-58
2022/07/05 01:29:11;;;;;;;;;;;;;;;24.60;58.26;100104.94;2061439;28;19929;-57
2022/07/05 01:30:13;;;;;;;;;;;;;;;24.60;58.22;100101.34;2060995;28;19918;-57
2022/07/05 01:31:13;;;;;;;;;;;;;;;24.60;58.02;100104.09;2060521;28;20001;-58
2022/07/05 01:32:14;;;;;;;;;;;;;;;24.59;58.13;100103.22;2062533;28;19918;-58
2022/07/05 01:33:14;;;;;;;;;;;;;;;24.60;58.10;100101.34;2058314;28;19917;-57
2022/07/05 01:34:14;;;;;;;;;;;;;;;24.60;58.14;100102.19;2060260;28;20244;-58
2022/07/05 01:35:23;;;;;;;;;;;;;;;24.58;58.19;100101.50;2061451;28;19967;-58
2022/07/05 01:36:23;;;;;;;;;;;;;;;24.59;57.97;100099.59;2056717;28;19921;-58
2022/07/05 01:37:23;;;;;;;;;;;;;;;24.60;58.29;100098.56;2054578;28;19917;-58
2022/07/05 01:38:26;;;;;;;;;;;;;;;24.59;58.04;100102.34;2059708;28;19925;-58
2022/07/05 01:39:27;;;;;;;;;;;;;;;24.59;58.15;100105.13;2060562;28;19918;-57
2022/07/05 01:40:27;;;;;;;;;;;;;;;24.58;58.17;100103.41;2066563;28;19969;-57
2022/07/05 01:41:28;;;;;;;;;;;;;;;24.58;58.05;100106.16;2066392;28;19959;-58
2022/07/05 01:42:28;;;;;;;;;;;;;;;24.58;58.01;100097.91;2055601;28;19981;-57
2022/07/05 01:43:29;;;;;;;;;;;;;;;24.58;58.07;100103.41;2060144;28;19964;-57
2022/07/05 01:44:30;;;;;;;;;;;;;;;24.58;58.15;100106.16;2054328;28;19942;-57
2022/07/05 01:45:40;;;;;;;;;;;;;;;24.58;58.12;100103.41;2058914;28;19949;-58
2022/07/05 01:46:40;;;;;;;;;;;;;;;24.58;58.03;100100.66;2063905;28;20265;-57
2022/07/05 01:47:45;;;;;;;;;;;;;;;24.58;58.08;100104.25;2057076;28;20363;-58
2022/07/05 01:48:47;;;;;;;;;;;;;;;24.57;57.97;100104.44;2058635;28;19990;-58
2022/07/05 01:49:49;;;;;;;;;;;;;;;24.58;57.85;100107.00;2059163;28;19952;-58
2022/07/05 01:50:54;;;;;;;;;;;;;;;24.57;57.93;100105.31;2059957;28;19924;-57
2022/07/05 01:51:57;;;;;;;;;;;;;;;24.58;58.13;100106.16;2061003;28;19920;-57
2022/07/05 01:53:00;;;;;;;;;;;;;;;24.57;58.16;100105.31;2059098;28;20423;-58
2022/07/05 01:54:01;;;;;;;;;;;;;;;24.58;58.12;100108.94;2058818;28;20400;-58
2022/07/05 01:55:01;;;;;;;;;;;;;;;24.58;57.99;100108.94;2058271;28;19921;-57
2022/07/05 01:56:02;;;;;;;;;;;;;;;24.57;57.96;100109.94;2059276;28;20782;-58
2022/07/05 01:57:03;;;;;;;;;;;;;;;24.57;58.03;100110.84;2060816;28;19921;-57
2022/07/05 01:58:04;;;;;;;;;;;;;;;24.58;58.12;100119.94;2060408;28;20004;-58
2022/07/05 01:59:05;;;;;;;;;;;;;;;24.57;58.03;100118.22;2058750;28;19928;-58
2022/07/05 02:00:06;;;;;;;;;;;;;;;24.58;57.88;100117.19;2060746;28;20231;-57
2022/07/05 02:01:06;;;;;;;;;;;;;;;24.57;57.84;100108.06;2052851;28;19918;-58
2022/07/05 02:02:07;;;;;;;;;;;;;;;24.57;58.06;100115.47;2052273;28;20008;-57
2022/07/05 02:03:07;;;;;;;;;;;;;;;24.58;58.01;100122.69;2055345;28;19925;-58
2022/07/05 02:04:09;;;;;;;;;;;;;;;24.57;57.92;100109.94;2060445;28;19918;-58
2022/07/05 02:05:09;;;;;;;;;;;;;;;24.58;57.80;100122.69;2060431;28;19969;-58
2022/07/05 02:06:11;;;;;;;;;;;;;;;24.56;57.86;100120.13;2060305;28;19956;-58
2022/07/05 02:07:11;;;;;;;;;;;;;;;24.57;58.02;100132.00;2059564;28;20009;-57
2022/07/05 02:08:12;;;;;;;;;;;;;;;24.57;58.12;100127.38;2058984;28;20248;-58
2022/07/05 02:09:12;;;;;;;;;;;;;;;24.57;58.06;100126.47;2060712;28;20223;-58
2022/07/05 02:10:13;;;;;;;;;;;;;;;24.57;57.90;100119.09;2062648;28;19921;-58
2022/07/05 02:11:13;;;;;;;;;;;;;;;24.57;58.03;100120.97;2059125;28;19916;-58
2022/07/05 02:12:13;;;;;;;;;;;;;;;24.57;58.10;100121.84;2056010;28;19960;-58
2022/07/05 02:13:14;;;;;;;;;;;;;;;24.57;57.90;100126.47;2058942;28;20263;-58
2022/07/05 02:14:15;;;;;;;;;;;;;;;24.57;58.04;100132.00;2060583;28;19909;-58
2022/07/05 02:15:15;;;;;;;;;;;;;;;24.57;58.03;100132.00;2060703;28;20677;-58
2022/07/05 02:16:15;;;;;;;;;;;;;;;24.57;57.86;100138.38;2049035;28;20210;-58
2022/07/05 02:17:16;;;;;;;;;;;;;;;24.57;58.00;100126.47;2056812;28;19922;-58
2022/07/05 02:18:16;;;;;;;;;;;;;;;24.56;57.92;100125.63;2057131;28;20178;-58
2022/07/05 02:19:16;;;;;;;;;;;;;;;24.55;57.99;100123.94;2055140;28;20128;-58
2022/07/05 02:20:16;;;;;;;;;;;;;;;24.56;57.89;100130.28;2060291;28;19918;-58
2022/07/05 02:21:17;;;;;;;;;;;;;;;24.56;57.88;100131.16;2055824;28;20915;-58
2022/07/05 02:22:17;;;;;;;;;;;;;;;24.56;58.07;100130.28;2058341;28;19918;-57
2022/07/05 02:23:17;;;;;;;;;;;;;;;24.55;57.87;100137.72;2059031;28;19918;-57
2022/07/05 02:24:19;;;;;;;;;;;;;;;24.55;57.97;100140.47;2050484;28;20071;-57
2022/07/05 02:25:19;;;;;;;;;;;;;;;24.56;58.01;100135.81;2062681;28;20248;-58
2022/07/05 02:26:20;;;;;;;;;;;;;;;24.55;57.80;100128.59;2056762;28;20307;-58
2022/07/05 02:27:20;;;;;;;;;;;;;;;24.55;57.79;100140.47;2065649;28;19921;-58
2022/07/05 02:28:20;;;;;;;;;;;;;;;24.55;57.86;100139.63;2060374;28;20303;-58
2022/07/05 02:29:20;;;;;;;;;;;;;;;24.54;57.83;100137.88;2058816;28;19956;-57
2022/07/05 02:30:21;;;;;;;;;;;;;;;24.55;58.05;100142.38;2057852;28;19986;-57
2022/07/05 02:31:21;;;;;;;;;;;;;;;24.55;57.90;100139.63;2058449;28;20162;-58
2022/07/05 02:32:21;;;;;;;;;;;;;;;24.54;58.05;100143.41;2050908;28;19921;-58
2022/07/05 02:33:22;;;;;;;;;;;;;;;24.55;57.94;100136.84;2053335;28;19980;-58
2022/07/05 02:34:22;;;;;;;;;;;;;;;24.54;57.90;100140.63;2057218;28;20162;-58
2022/07/05 02:35:22;;;;;;;;;;;;;;;24.54;58.00;100143.41;2057968;28;19953;-57
2022/07/05 02:36:23;;;;;;;;;;;;;;;24.54;58.03;100137.88;2066545;28;20015;-58
2022/07/05 02:37:23;;;;;;;;;;;;;;;24.54;58.00;100143.41;2062375;28;19993;-57
2022/07/05 02:38:24;;;;;;;;;;;;;;;24.54;57.86;100137.88;2067984;28;19952;-58
2022/07/05 02:39:24;;;;;;;;;;;;;;;24.54;58.01;100137.88;2058359;28;20917;-57
2022/07/05 02:40:24;;;;;;;;;;;;;;;24.55;57.94;100136.84;2059080;28;21365;-57
2022/07/05 02:41:24;;;;;;;;;;;;;;;24.54;58.00;100138.72;2052961;28;19909;-58
2022/07/05 02:42:25;;;;;;;;;;;;;;;24.54;57.86;100132.38;2053173;28;19910;-58
2022/07/05 02:43:25;;;;;;;;;;;;;;;24.54;57.85;100135.97;2052125;28;20170;-57
2022/07/05 02:44:25;;;;;;;;;;;;;;;24.55;57.77;100139.63;2053361;28;19914;-58
2022/07/05 02:45:26;;;;;;;;;;;;;;;24.54;57.92;100135.13;2053753;28;20466;-57
2022/07/05 02:46:26;;;;;;;;;;;;;;;24.55;57.96;100139.63;2058825;28;19987;-58
2022/07/05 02:47:28;;;;;;;;;;;;;;;24.54;57.79;100135.13;2057260;28;19924;-58
2022/07/05 02:48:29;;;;;;;;;;;;;;;24.54;57.98;100138.72;2059338;28;19922;-58
2022/07/05 02:49:29;;;;;;;;;;;;;;;24.55;57.87;100139.63;2060139;28;19997;-58
2022/07/05 02:50:30;;;;;;;;;;;;;;;24.55;57.81;100136.84;2059878;28;19924;-57
2022/07/05 02:51:30;;;;;;;;;;;;;;;24.54;57.96;100143.41;2058714;28;20446;-57
2022/07/05 02:52:30;;;;;;;;;;;;;;;24.54;57.76;100126.84;2060870;28;20575;-58
2022/07/05 02:53:31;;;;;;;;;;;;;;;24.54;57.83;100141.50;2058691;28;19961;-57
2022/07/05 02:54:33;;;;;;;;;;;;;;;24.53;57.88;100130.66;2061029;28;19991;-58
2022/07/05 02:55:33;;;;;;;;;;;;;;;24.54;57.73;100143.41;2053166;28;19922;-58
2022/07/05 02:56:34;;;;;;;;;;;;;;;24.53;57.78;100144.44;2058214;28;19918;-57
2022/07/05 02:57:36;;;;;;;;;;;;;;;24.54;57.88;100144.25;2045690;28;19944;-58
2022/07/05 02:58:37;;;;;;;;;;;;;;;24.54;57.82;100148.91;2049785;28;20933;-58
2022/07/05 02:59:38;;;;;;;;;;;;;;;24.54;57.88;100146.16;2053493;28;20039;-58
2022/07/05 03:00:38;;;;;;;;;;;;;;;24.54;57.90;100140.63;2051549;28;19917;-58
2022/07/05 03:01:38;;;;;;;;;;;;;;;24.53;57.86;100149.97;2061316;28;19928;-58
2022/07/05 03:02:38;;;;;;;;;;;;;;;24.53;57.90;100136.19;2058460;28;19917;-58
2022/07/05 03:03:39;;;;;;;;;;;;;;;24.54;57.73;100137.88;2059653;28;20213;-58
2022/07/05 03:04:39;;;;;;;;;;;;;;;24.52;57.91;100140.84;2059491;28;20573;-58
2022/07/05 03:05:39;;;;;;;;;;;;;;;24.53;57.74;100136.19;2060437;28;19928;-58
2022/07/05 03:06:40;;;;;;;;;;;;;;;24.52;57.70;100139.97;2059213;28;20203;-58
2022/07/05 03:07:40;;;;;;;;;;;;;;;24.53;57.94;100133.44;2055775;28;19922;-58
2022/07/05 03:08:41;;;;;;;;;;;;;;;24.52;57.78;100129.81;2054011;28;20023;-58
2022/07/05 03:09:41;;;;;;;;;;;;;;;24.52;58.00;100128.94;2061679;28;19955;-58
2022/07/05 03:10:42;;;;;;;;;;;;;;;24.52;57.95;100131.69;2059280;28;20467;-57
2022/07/05 03:11:42;;;;;;;;;;;;;;;24.50;57.95;100131.00;2058578;28;19925;-58
2022/07/05 03:12:43;;;;;;;;;;;;;;;24.51;57.83;100133.59;2056246;28;20314;-58
2022/07/05 03:13:43;;;;;;;;;;;;;;;24.51;57.91;100127.25;2055043;28;20316;-58
2022/07/05 03:14:43;;;;;;;;;;;;;;;24.51;57.85;100124.47;2054801;28;19962;-58
2022/07/05 03:15:44;;;;;;;;;;;;;;;24.51;57.69;100132.75;2056023;28;19952;-57
2022/07/05 03:16:44;;;;;;;;;;;;;;;24.50;57.89;100131.00;2058628;28;20420;-58
2022/07/05 03:17:44;;;;;;;;;;;;;;;24.51;57.77;100138.25;2056389;28;19922;-57
2022/07/05 03:18:45;;;;;;;;;;;;;;;24.50;57.99;100131.00;2060503;28;19987;-58
2022/07/05 03:19:45;;;;;;;;;;;;;;;24.50;57.93;100131.00;2058474;28;20384;-58
2022/07/05 03:20:45;;;;;;;;;;;;;;;24.50;57.81;100136.53;2059618;28;20179;-58
2022/07/05 03:21:45;;;;;;;;;;;;;;;24.50;57.87;100131.00;2057557;28;19906;-58
2022/07/05 03:22:46;;;;;;;;;;;;;;;24.50;57.83;100134.66;2059417;28;19909;-57
2022/07/05 03:23:46;;;;;;;;;;;;;;;24.50;57.95;100136.53;2059661;28;19918;-58
2022/07/05 03:24:46;;;;;;;;;;;;;;;24.49;57.90;100143.94;2059869;28;19918;-58
2022/07/05 03:25:47;;;;;;;;;;;;;;;24.50;57.89;100133.78;2061111;28;19929;-58
2022/07/05 03:26:47;;;;;;;;;;;;;;;24.50;57.96;100142.03;2053240;28;19989;-58
2022/07/05 03:27:47;;;;;;;;;;;;;;;24.50;58.04;100139.28;2052767;28;20009;-58
2022/07/05 03:28:47;;;;;;;;;;;;;;;24.50;57.92;100133.78;2060371;28;19956;-58
2022/07/05 03:29:48;;;;;;;;;;;;;;;24.51;57.67;100135.50;2061745;28;19944;-61
2022/07/05 03:30:48;;;;;;;;;;;;;;;24.51;57.99;100135.50;2060715;28;19909;-58
2022/07/05 03:31:48;;;;;;;;;;;;;;;24.49;58.00;100137.59;2059294;28;19918;-58
2022/07/05 03:32:49;;;;;;;;;;;;;;;24.50;57.97;100136.53;2059367;28;19937;-58
2022/07/05 03:33:49;;;;;;;;;;;;;;;24.50;57.89;100147.56;2060794;28;19924;-58
2022/07/05 03:34:49;;;;;;;;;;;;;;;24.49;57.90;100135.69;2058916;28;20155;-58
2022/07/05 03:35:49;;;;;;;;;;;;;;;24.49;57.74;100146.69;2063381;28;19956;-58
2022/07/05 03:36:50;;;;;;;;;;;;;;;24.50;57.83;100136.53;2052037;28;19925;-58
2022/07/05 03:37:50;;;;;;;;;;;;;;;24.50;57.79;100136.53;2055899;28;19925;-58
2022/07/05 03:38:50;;;;;;;;;;;;;;;24.50;57.65;100131.00;2060278;28;19927;-58
2022/07/05 03:39:50;;;;;;;;;;;;;;;24.49;57.70;100132.91;2055521;28;19929;-58
2022/07/05 03:40:51;;;;;;;;;;;;;;;24.50;57.89;100139.28;2052458;28;19976;-58
2022/07/05 03:41:51;;;;;;;;;;;;;;;24.50;57.77;100136.53;2060247;28;19953;-57
2022/07/05 03:42:52;;;;;;;;;;;;;;;24.49;57.74;100134.81;2050921;28;20008;-58
2022/07/05 03:43:52;;;;;;;;;;;;;;;24.50;57.77;100131.00;2050556;28;20358;-58
2022/07/05 03:44:53;;;;;;;;;;;;;;;24.49;57.88;100140.34;2061437;28;19923;-58
2022/07/05 03:45:54;;;;;;;;;;;;;;;24.49;57.77;100132.91;2058113;28;19924;-57
2022/07/05 03:46:54;;;;;;;;;;;;;;;24.49;57.77;100134.81;2061077;28;19917;-58
2022/07/05 03:47:58;;;;;;;;;;;;;;;24.49;57.73;100132.06;2055153;28;19918;-58
2022/07/05 03:48:59;;;;;;;;;;;;;;;24.49;57.70;100132.06;2056856;28;20735;-58
2022/07/05 03:49:59;;;;;;;;;;;;;;;24.48;57.88;100133.97;2060098;28;19923;-57
2022/07/05 03:50:59;;;;;;;;;;;;;;;24.48;57.70;100133.97;2050228;28;19917;-59
2022/07/05 03:52:00;;;;;;;;;;;;;;;24.49;57.89;100134.81;2052153;28;19941;-58
2022/07/05 03:53:00;;;;;;;;;;;;;;;24.48;57.89;100127.63;2059761;28;19917;-58
2022/07/05 03:54:01;;;;;;;;;;;;;;;24.49;57.75;100134.81;2059012;28;20364;-58
2022/07/05 03:55:02;;;;;;;;;;;;;;;24.48;57.83;100133.13;2060759;28;20339;-58
2022/07/05 03:56:02;;;;;;;;;;;;;;;24.48;57.67;100139.50;2060497;28;19917;-58
2022/07/05 03:57:02;;;;;;;;;;;;;;;24.48;57.71;100133.97;2059037;28;19918;-58
2022/07/05 03:58:03;;;;;;;;;;;;;;;24.48;57.95;100138.63;2060521;28;19917;-58
2022/07/05 03:59:03;;;;;;;;;;;;;;;24.47;57.74;100137.75;2058812;28;19927;-58
2022/07/05 04:00:04;;;;;;;;;;;;;;;24.47;57.94;100131.41;2061624;28;19914;-58
2022/07/05 04:01:04;;;;;;;;;;;;;;;24.46;57.84;100137.97;2058920;28;19917;-57
2022/07/05 04:02:04;;;;;;;;;;;;;;;24.47;57.71;100137.75;2058498;28;20284;-58
2022/07/05 04:03:04;;;;;;;;;;;;;;;24.47;57.94;100142.41;2060902;28;20169;-58
2022/07/05 04:04:05;;;;;;;;;;;;;;;24.48;57.68;100144.16;2057876;28;20397;-58
2022/07/05 04:05:05;;;;;;;;;;;;;;;24.46;57.76;100146.22;2060049;28;20181;-58
2022/07/05 04:06:06;;;;;;;;;;;;;;;24.45;57.77;100144.47;2060119;28;19925;-58
2022/07/05 04:07:07;;;;;;;;;;;;;;;24.46;57.82;100140.72;2058329;28;19910;-57
2022/07/05 04:08:07;;;;;;;;;;;;;;;24.46;57.75;100148.97;2060564;28;19959;-58
2022/07/05 04:09:07;;;;;;;;;;;;;;;24.46;57.82;100144.31;2059752;28;19946;-58
2022/07/05 04:10:08;;;;;;;;;;;;;;;24.47;57.80;100147.94;2058179;28;19983;-58
2022/07/05 04:11:09;;;;;;;;;;;;;;;24.47;57.74;100156.19;2065382;28;19921;-57
2022/07/05 04:12:10;;;;;;;;;;;;;;;24.46;57.83;100146.22;2059476;28;19921;-58
2022/07/05 04:13:10;;;;;;;;;;;;;;;24.46;57.82;100146.22;2059422;28;19969;-58
2022/07/05 04:14:10;;;;;;;;;;;;;;;24.46;57.91;100147.06;2059635;28;19921;-58
2022/07/05 04:15:11;;;;;;;;;;;;;;;24.46;57.72;100148.97;2057750;28;20554;-58
2022/07/05 04:16:11;;;;;;;;;;;;;;;24.47;57.72;100153.44;2060499;28;20356;-58
2022/07/05 04:17:11;;;;;;;;;;;;;;;24.46;57.82;100149.84;2057849;28;19963;-58
2022/07/05 04:18:12;;;;;;;;;;;;;;;24.47;57.77;100145.16;2059548;28;19975;-58
2022/07/05 04:19:12;;;;;;;;;;;;;;;24.47;57.77;100150.69;2059906;28;20351;-58
2022/07/05 04:20:12;;;;;;;;;;;;;;;24.46;57.68;100140.72;2060451;28;19998;-58
2022/07/05 04:21:13;;;;;;;;;;;;;;;24.46;57.81;100146.22;2063983;28;19960;-58
2022/07/05 04:22:13;;;;;;;;;;;;;;;24.46;57.71;100140.72;2060394;28;19917;-58
2022/07/05 04:23:14;;;;;;;;;;;;;;;24.47;57.71;100153.44;2059578;28;19953;-58
2022/07/05 04:24:14;;;;;;;;;;;;;;;24.46;57.75;100157.25;2062464;28;20586;-58
2022/07/05 04:25:17;;;;;;;;;;;;;;;24.46;57.79;100151.72;2062451;28;19918;-57
2022/07/05 04:26:18;;;;;;;;;;;;;;;24.46;57.74;100151.72;2060233;28;19917;-58
2022/07/05 04:27:18;;;;;;;;;;;;;;;24.46;57.83;100157.25;2056756;28;20757;-57
2022/07/05 04:28:19;;;;;;;;;;;;;;;24.46;57.73;100154.50;2058871;28;19928;-58
2022/07/05 04:29:19;;;;;;;;;;;;;;;24.46;57.72;100157.25;2060506;28;19967;-57
2022/07/05 04:30:20;;;;;;;;;;;;;;;24.45;57.67;100161.88;2054635;28;20268;-57
2022/07/05 04:31:20;;;;;;;;;;;;;;;24.46;57.73;100158.09;2054313;28;20319;-58
2022/07/05 04:32:21;;;;;;;;;;;;;;;24.46;57.67;100162.75;2058680;28;20201;-58
2022/07/05 04:33:21;;;;;;;;;;;;;;;24.45;57.62;100149.97;2058723;28;19910;-58
2022/07/05 04:34:21;;;;;;;;;;;;;;;24.46;57.59;100157.25;2060933;28;19909;-58
2022/07/05 04:35:22;;;;;;;;;;;;;;;24.46;57.69;100157.25;2052215;28;20336;-58
2022/07/05 04:36:22;;;;;;;;;;;;;;;24.46;57.74;100157.25;2050406;28;19918;-57
2022/07/05 04:37:22;;;;;;;;;;;;;;;24.44;57.60;100159.28;2060571;28;19925;-58
2022/07/05 04:38:22;;;;;;;;;;;;;;;24.45;57.61;100161.00;2061161;28;20707;-57
2022/07/05 04:39:23;;;;;;;;;;;;;;;24.45;57.68;100161.00;2059296;28;19925;-58
2022/07/05 04:40:23;;;;;;;;;;;;;;;24.44;57.62;100165.66;2061338;28;19918;-57
2022/07/05 04:41:23;;;;;;;;;;;;;;;24.44;57.67;100162.03;2060890;28;19910;-58
2022/07/05 04:42:24;;;;;;;;;;;;;;;24.45;57.62;100169.25;2061897;28;20016;-58
2022/07/05 04:43:24;;;;;;;;;;;;;;;24.44;57.71;100165.66;2060175;28;20456;-57
2022/07/05 04:44:25;;;;;;;;;;;;;;;24.44;57.87;100164.81;2067927;28;20376;-58
2022/07/05 04:45:25;;;;;;;;;;;;;;;24.44;57.63;100164.81;2062685;28;19928;-58
2022/07/05 04:46:25;;;;;;;;;;;;;;;24.43;57.74;100166.69;2060543;28;20116;-57
2022/07/05 04:47:26;;;;;;;;;;;;;;;24.43;57.70;100168.59;2059010;28;20003;-58
2022/07/05 04:48:26;;;;;;;;;;;;;;;24.43;57.86;100174.97;2061297;28;20652;-58
2022/07/05 04:49:26;;;;;;;;;;;;;;;24.43;57.77;100168.59;2062098;28;19981;-58
2022/07/05 04:50:27;;;;;;;;;;;;;;;24.43;57.71;100174.13;2062679;28;19917;-57
2022/07/05 04:51:28;;;;;;;;;;;;;;;24.43;57.86;100171.38;2061636;28;19983;-60
2022/07/05 04:52:28;;;;;;;;;;;;;;;24.42;57.96;100167.72;2060329;28;19917;-57
2022/07/05 04:53:28;;;;;;;;;;;;;;;24.43;57.70;100174.97;2060150;28;20503;-58
2022/07/05 04:54:28;;;;;;;;;;;;;;;24.43;57.77;100180.47;2068799;28;19909;-57
2022/07/05 04:55:29;;;;;;;;;;;;;;;24.43;57.72;100179.63;2061553;28;19909;-58
2022/07/05 04:56:29;;;;;;;;;;;;;;;24.43;57.69;100174.13;2062255;28;19960;-57
2022/07/05 04:57:36;;;;;;;;;;;;;;;24.44;57.52;100175.81;2061296;28;19917;-58
2022/07/05 04:58:36;;;;;;;;;;;;;;;24.43;57.72;100176.88;2061271;28;20425;-58
2022/07/05 04:59:37;;;;;;;;;;;;;;;24.43;57.55;100179.63;2061421;28;19928;-58
2022/07/05 05:00:37;;;;;;;;;;;;;;;24.43;57.76;100176.88;2058752;28;19951;-58
2022/07/05 05:01:37;;;;;;;;;;;;;;;24.43;57.68;100176.88;2063443;28;20135;-58
2022/07/05 05:02:38;;;;;;;;;;;;;;;24.43;57.69;100179.63;2058738;28;19924;-58
2022/07/05 05:03:38;;;;;;;;;;;;;;;24.42;57.79;100189.78;2061577;28;19924;-59
2022/07/05 05:04:38;;;;;;;;;;;;;;;24.42;57.61;100186.16;2067934;28;19921;-58
2022/07/05 05:05:39;;;;;;;;;;;;;;;24.43;57.63;100185.13;2061896;28;19949;-57
2022/07/05 05:06:39;;;;;;;;;;;;;;;24.43;57.78;100179.63;2058861;28;20532;-58
2022/07/05 05:07:41;;;;;;;;;;;;;;;24.43;57.62;100187.91;2059450;28;20375;-57
2022/07/05 05:08:41;;;;;;;;;;;;;;;24.43;57.70;100179.63;2060400;28;20015;-57
2022/07/05 05:09:42;;;;;;;;;;;;;;;24.42;57.56;100178.75;2061088;28;20147;-58
2022/07/05 05:10:42;;;;;;;;;;;;;;;24.43;57.69;100179.63;2057272;28;20626;-58